sensor_id;sensor_type;location;lat;lon;timestamp;P1;durP1;ratioP1;P2;durP2;ratioP2
13230;SDS011;6681;53.254;10.398;2023-07-29T00:01:42;5.00;;;4.20;;
13230;SDS011;6681;53.254;10.398;2023-07-29T00:04:08;5.23;;;4.73;;
13230;SDS011;6681;53.254;10.398;2023-07-29T00:06:34;4.07;;;3.73;;
13230;SDS011;6681;53.254;10.398;2023-07-29T00:09:01;12.23;;;4.93;;
13230;SDS011;6681;53.254;10.398;2023-07-29T00:11:27;4.57;;;3.10;;
13230;SDS011;6681;53.254;10.398;2023-07-29T00:13:52;3.73;;;3.53;;
13230;SDS011;6681;53.254;10.398;2023-07-29T00:16:18;3.67;;;3.47;;
13230;SDS011;6681;53.254;10.398;2023-07-29T00:18:47;4.60;;;4.30;;
13230;SDS011;6681;53.254;10.398;2023-07-29T00:21:13;4.33;;;4.03;;
13230;SDS011;6681;53.254;10.398;2023-07-29T00:23:38;3.40;;;3.17;;
13230;SDS011;6681;53.254;10.398;2023-07-29T00:26:04;4.10;;;3.40;;
13230;SDS011;6681;53.254;10.398;2023-07-29T00:28:30;3.50;;;3.20;;
13230;SDS011;6681;53.254;10.398;2023-07-29T00:30:55;4.30;;;3.93;;
13230;SDS011;6681;53.254;10.398;2023-07-29T00:33:21;5.70;;;4.33;;
13230;SDS011;6681;53.254;10.398;2023-07-29T00:35:47;5.33;;;3.07;;
13230;SDS011;6681;53.254;10.398;2023-07-29T00:38:12;4.17;;;3.77;;
13230;SDS011;6681;53.254;10.398;2023-07-29T00:40:38;4.87;;;3.87;;
13230;SDS011;6681;53.254;10.398;2023-07-29T00:43:04;3.37;;;3.10;;
13230;SDS011;6681;53.254;10.398;2023-07-29T00:45:30;3.80;;;3.23;;
13230;SDS011;6681;53.254;10.398;2023-07-29T00:47:56;4.13;;;3.83;;
13230;SDS011;6681;53.254;10.398;2023-07-29T00:50:23;3.53;;;3.23;;
13230;SDS011;6681;53.254;10.398;2023-07-29T00:52:49;4.13;;;3.83;;
13230;SDS011;6681;53.254;10.398;2023-07-29T00:55:14;3.40;;;3.20;;
13230;SDS011;6681;53.254;10.398;2023-07-29T00:57:41;5.70;;;3.60;;
13230;SDS011;6681;53.254;10.398;2023-07-29T01:00:07;7.20;;;3.20;;
13230;SDS011;6681;53.254;10.398;2023-07-29T01:02:34;3.43;;;3.20;;
13230;SDS011;6681;53.254;10.398;2023-07-29T01:05:00;4.00;;;3.70;;
13230;SDS011;6681;53.254;10.398;2023-07-29T01:07:33;4.47;;;4.03;;
13230;SDS011;6681;53.254;10.398;2023-07-29T01:10:19;5.13;;;4.70;;
13230;SDS011;6681;53.254;10.398;2023-07-29T01:12:51;3.63;;;3.10;;
13230;SDS011;6681;53.254;10.398;2023-07-29T01:15:44;4.40;;;3.67;;
13230;SDS011;6681;53.254;10.398;2023-07-29T01:18:19;4.40;;;4.10;;
13230;SDS011;6681;53.254;10.398;2023-07-29T01:20:56;4.60;;;4.20;;
13230;SDS011;6681;53.254;10.398;2023-07-29T01:23:31;5.93;;;5.43;;
13230;SDS011;6681;53.254;10.398;2023-07-29T01:25:58;5.40;;;4.90;;
13230;SDS011;6681;53.254;10.398;2023-07-29T01:28:24;4.60;;;4.17;;
13230;SDS011;6681;53.254;10.398;2023-07-29T01:30:51;5.53;;;5.03;;
13230;SDS011;6681;53.254;10.398;2023-07-29T01:33:47;5.20;;;4.70;;
13230;SDS011;6681;53.254;10.398;2023-07-29T01:36:19;5.27;;;4.60;;
13230;SDS011;6681;53.254;10.398;2023-07-29T01:38:48;21.23;;;6.10;;
13230;SDS011;6681;53.254;10.398;2023-07-29T01:41:15;6.30;;;4.97;;
13230;SDS011;6681;53.254;10.398;2023-07-29T01:43:42;5.10;;;4.40;;
13230;SDS011;6681;53.254;10.398;2023-07-29T01:46:12;6.37;;;4.97;;
13230;SDS011;6681;53.254;10.398;2023-07-29T01:48:38;9.57;;;5.97;;
13230;SDS011;6681;53.254;10.398;2023-07-29T01:51:05;9.33;;;6.67;;
13230;SDS011;6681;53.254;10.398;2023-07-29T01:53:31;7.13;;;5.87;;
13230;SDS011;6681;53.254;10.398;2023-07-29T01:55:57;6.53;;;5.90;;
13230;SDS011;6681;53.254;10.398;2023-07-29T01:58:23;6.27;;;5.67;;
13230;SDS011;6681;53.254;10.398;2023-07-29T02:00:49;6.13;;;5.53;;
13230;SDS011;6681;53.254;10.398;2023-07-29T02:03:15;5.33;;;4.93;;
13230;SDS011;6681;53.254;10.398;2023-07-29T02:05:41;6.57;;;5.93;;
13230;SDS011;6681;53.254;10.398;2023-07-29T02:08:10;9.00;;;6.90;;
13230;SDS011;6681;53.254;10.398;2023-07-29T02:10:36;8.37;;;6.97;;
13230;SDS011;6681;53.254;10.398;2023-07-29T02:13:02;8.70;;;8.00;;
13230;SDS011;6681;53.254;10.398;2023-07-29T02:15:28;6.33;;;5.70;;
13230;SDS011;6681;53.254;10.398;2023-07-29T02:17:54;11.17;;;7.87;;
13230;SDS011;6681;53.254;10.398;2023-07-29T02:20:20;7.40;;;6.77;;
13230;SDS011;6681;53.254;10.398;2023-07-29T02:22:45;9.00;;;7.27;;
13230;SDS011;6681;53.254;10.398;2023-07-29T02:25:13;7.67;;;6.80;;
13230;SDS011;6681;53.254;10.398;2023-07-29T02:27:39;8.57;;;7.63;;
13230;SDS011;6681;53.254;10.398;2023-07-29T02:30:05;8.97;;;6.90;;
13230;SDS011;6681;53.254;10.398;2023-07-29T02:32:31;7.33;;;6.63;;
13230;SDS011;6681;53.254;10.398;2023-07-29T02:34:56;9.83;;;6.67;;
13230;SDS011;6681;53.254;10.398;2023-07-29T02:37:22;7.97;;;5.30;;
13230;SDS011;6681;53.254;10.398;2023-07-29T02:39:48;7.50;;;6.90;;
13230;SDS011;6681;53.254;10.398;2023-07-29T02:42:13;5.40;;;4.90;;
13230;SDS011;6681;53.254;10.398;2023-07-29T02:44:39;9.30;;;7.53;;
13230;SDS011;6681;53.254;10.398;2023-07-29T02:47:05;11.10;;;7.27;;
13230;SDS011;6681;53.254;10.398;2023-07-29T02:49:31;6.40;;;5.80;;
13230;SDS011;6681;53.254;10.398;2023-07-29T02:51:56;7.07;;;5.53;;
13230;SDS011;6681;53.254;10.398;2023-07-29T02:54:22;6.80;;;6.13;;
13230;SDS011;6681;53.254;10.398;2023-07-29T02:56:50;10.93;;;7.60;;
13230;SDS011;6681;53.254;10.398;2023-07-29T02:59:15;9.20;;;8.23;;
13230;SDS011;6681;53.254;10.398;2023-07-29T03:01:41;6.00;;;5.50;;
13230;SDS011;6681;53.254;10.398;2023-07-29T03:04:07;7.90;;;6.90;;
13230;SDS011;6681;53.254;10.398;2023-07-29T03:06:33;8.80;;;7.03;;
13230;SDS011;6681;53.254;10.398;2023-07-29T03:08:58;7.43;;;6.80;;
13230;SDS011;6681;53.254;10.398;2023-07-29T03:11:24;8.03;;;7.23;;
13230;SDS011;6681;53.254;10.398;2023-07-29T03:13:49;9.57;;;7.63;;
13230;SDS011;6681;53.254;10.398;2023-07-29T03:16:16;6.90;;;6.37;;
13230;SDS011;6681;53.254;10.398;2023-07-29T03:18:43;7.57;;;6.87;;
13230;SDS011;6681;53.254;10.398;2023-07-29T03:21:09;10.20;;;7.03;;
13230;SDS011;6681;53.254;10.398;2023-07-29T03:23:36;9.20;;;8.17;;
13230;SDS011;6681;53.254;10.398;2023-07-29T03:26:02;11.50;;;8.07;;
13230;SDS011;6681;53.254;10.398;2023-07-29T03:28:36;8.30;;;7.07;;
13230;SDS011;6681;53.254;10.398;2023-07-29T03:31:05;12.10;;;8.10;;
13230;SDS011;6681;53.254;10.398;2023-07-29T03:33:31;9.43;;;7.73;;
13230;SDS011;6681;53.254;10.398;2023-07-29T03:35:57;10.57;;;8.53;;
13230;SDS011;6681;53.254;10.398;2023-07-29T03:38:22;9.23;;;7.90;;
13230;SDS011;6681;53.254;10.398;2023-07-29T03:40:48;8.07;;;6.47;;
13230;SDS011;6681;53.254;10.398;2023-07-29T03:43:14;8.40;;;6.83;;
13230;SDS011;6681;53.254;10.398;2023-07-29T03:45:40;7.37;;;6.67;;
13230;SDS011;6681;53.254;10.398;2023-07-29T03:48:05;10.67;;;7.57;;
13230;SDS011;6681;53.254;10.398;2023-07-29T03:50:33;10.40;;;8.13;;
13230;SDS011;6681;53.254;10.398;2023-07-29T03:53:05;10.60;;;7.33;;
13230;SDS011;6681;53.254;10.398;2023-07-29T03:55:31;11.10;;;7.80;;
13230;SDS011;6681;53.254;10.398;2023-07-29T03:57:57;9.63;;;8.03;;
13230;SDS011;6681;53.254;10.398;2023-07-29T04:00:24;10.23;;;8.53;;
13230;SDS011;6681;53.254;10.398;2023-07-29T04:02:49;9.00;;;8.10;;
13230;SDS011;6681;53.254;10.398;2023-07-29T04:05:15;9.80;;;8.53;;
13230;SDS011;6681;53.254;10.398;2023-07-29T04:07:41;12.07;;;8.77;;
13230;SDS011;6681;53.254;10.398;2023-07-29T04:10:07;12.93;;;9.47;;
13230;SDS011;6681;53.254;10.398;2023-07-29T04:12:33;10.03;;;9.10;;
13230;SDS011;6681;53.254;10.398;2023-07-29T04:14:59;10.43;;;7.67;;
13230;SDS011;6681;53.254;10.398;2023-07-29T04:17:24;9.73;;;8.23;;
13230;SDS011;6681;53.254;10.398;2023-07-29T04:19:50;11.47;;;10.07;;
13230;SDS011;6681;53.254;10.398;2023-07-29T04:22:16;9.33;;;7.70;;
13230;SDS011;6681;53.254;10.398;2023-07-29T04:24:41;11.27;;;9.10;;
13230;SDS011;6681;53.254;10.398;2023-07-29T04:27:07;12.33;;;9.50;;
13230;SDS011;6681;53.254;10.398;2023-07-29T04:29:33;10.30;;;9.20;;
13230;SDS011;6681;53.254;10.398;2023-07-29T04:32:01;9.37;;;8.47;;
13230;SDS011;6681;53.254;10.398;2023-07-29T04:34:30;8.70;;;7.80;;
13230;SDS011;6681;53.254;10.398;2023-07-29T04:36:56;10.57;;;9.00;;
13230;SDS011;6681;53.254;10.398;2023-07-29T04:39:22;10.40;;;9.40;;
13230;SDS011;6681;53.254;10.398;2023-07-29T04:41:47;11.00;;;9.80;;
13230;SDS011;6681;53.254;10.398;2023-07-29T04:44:13;14.77;;;9.30;;
13230;SDS011;6681;53.254;10.398;2023-07-29T04:46:39;10.87;;;9.60;;
13230;SDS011;6681;53.254;10.398;2023-07-29T04:49:04;12.87;;;10.20;;
13230;SDS011;6681;53.254;10.398;2023-07-29T04:51:30;14.17;;;9.30;;
13230;SDS011;6681;53.254;10.398;2023-07-29T04:53:59;10.53;;;9.43;;
13230;SDS011;6681;53.254;10.398;2023-07-29T04:56:24;9.87;;;8.70;;
13230;SDS011;6681;53.254;10.398;2023-07-29T04:58:50;11.80;;;10.80;;
13230;SDS011;6681;53.254;10.398;2023-07-29T05:01:16;13.83;;;10.03;;
13230;SDS011;6681;53.254;10.398;2023-07-29T05:03:42;10.67;;;9.57;;
13230;SDS011;6681;53.254;10.398;2023-07-29T05:06:07;11.53;;;10.43;;
13230;SDS011;6681;53.254;10.398;2023-07-29T05:08:33;13.50;;;10.63;;
13230;SDS011;6681;53.254;10.398;2023-07-29T05:10:59;13.90;;;10.40;;
13230;SDS011;6681;53.254;10.398;2023-07-29T05:13:25;13.77;;;12.13;;
13230;SDS011;6681;53.254;10.398;2023-07-29T05:15:50;13.30;;;9.87;;
13230;SDS011;6681;53.254;10.398;2023-07-29T05:18:16;14.07;;;10.33;;
13230;SDS011;6681;53.254;10.398;2023-07-29T05:20:42;15.50;;;9.77;;
13230;SDS011;6681;53.254;10.398;2023-07-29T05:23:08;11.67;;;9.80;;
13230;SDS011;6681;53.254;10.398;2023-07-29T05:25:34;11.70;;;10.50;;
13230;SDS011;6681;53.254;10.398;2023-07-29T05:28:00;10.50;;;9.50;;
13230;SDS011;6681;53.254;10.398;2023-07-29T05:30:26;10.30;;;9.33;;
13230;SDS011;6681;53.254;10.398;2023-07-29T05:32:59;12.37;;;11.03;;
13230;SDS011;6681;53.254;10.398;2023-07-29T05:35:25;12.60;;;9.73;;
13230;SDS011;6681;53.254;10.398;2023-07-29T05:37:50;11.67;;;8.67;;
13230;SDS011;6681;53.254;10.398;2023-07-29T05:40:16;17.83;;;11.23;;
13230;SDS011;6681;53.254;10.398;2023-07-29T05:42:42;11.20;;;9.93;;
13230;SDS011;6681;53.254;10.398;2023-07-29T05:45:10;9.93;;;8.93;;
13230;SDS011;6681;53.254;10.398;2023-07-29T05:47:35;10.13;;;9.00;;
13230;SDS011;6681;53.254;10.398;2023-07-29T05:50:01;11.57;;;9.70;;
13230;SDS011;6681;53.254;10.398;2023-07-29T05:52:29;11.43;;;10.10;;
13230;SDS011;6681;53.254;10.398;2023-07-29T05:54:57;10.10;;;8.47;;
13230;SDS011;6681;53.254;10.398;2023-07-29T05:57:23;9.47;;;8.53;;
13230;SDS011;6681;53.254;10.398;2023-07-29T05:59:49;11.13;;;10.03;;
13230;SDS011;6681;53.254;10.398;2023-07-29T06:02:14;12.13;;;9.97;;
13230;SDS011;6681;53.254;10.398;2023-07-29T06:04:40;15.53;;;9.33;;
13230;SDS011;6681;53.254;10.398;2023-07-29T06:07:06;12.17;;;8.57;;
13230;SDS011;6681;53.254;10.398;2023-07-29T06:09:31;12.87;;;9.67;;
13230;SDS011;6681;53.254;10.398;2023-07-29T06:11:57;11.67;;;9.70;;
13230;SDS011;6681;53.254;10.398;2023-07-29T06:14:23;10.50;;;8.87;;
13230;SDS011;6681;53.254;10.398;2023-07-29T06:16:49;9.17;;;7.57;;
13230;SDS011;6681;53.254;10.398;2023-07-29T06:19:15;9.33;;;8.47;;
13230;SDS011;6681;53.254;10.398;2023-07-29T06:21:40;10.90;;;9.07;;
13230;SDS011;6681;53.254;10.398;2023-07-29T06:24:06;11.23;;;9.47;;
13230;SDS011;6681;53.254;10.398;2023-07-29T06:26:32;11.27;;;8.50;;
13230;SDS011;6681;53.254;10.398;2023-07-29T06:28:58;11.63;;;9.83;;
13230;SDS011;6681;53.254;10.398;2023-07-29T06:31:23;13.50;;;9.77;;
13230;SDS011;6681;53.254;10.398;2023-07-29T06:33:49;11.07;;;8.30;;
13230;SDS011;6681;53.254;10.398;2023-07-29T06:36:15;10.43;;;9.43;;
13230;SDS011;6681;53.254;10.398;2023-07-29T06:38:40;9.03;;;8.10;;
13230;SDS011;6681;53.254;10.398;2023-07-29T06:41:06;9.73;;;8.73;;
13230;SDS011;6681;53.254;10.398;2023-07-29T06:43:32;13.50;;;9.00;;
13230;SDS011;6681;53.254;10.398;2023-07-29T06:45:58;9.77;;;7.47;;
13230;SDS011;6681;53.254;10.398;2023-07-29T06:48:23;8.33;;;7.57;;
13230;SDS011;6681;53.254;10.398;2023-07-29T06:50:49;13.03;;;8.77;;
13230;SDS011;6681;53.254;10.398;2023-07-29T06:53:15;12.63;;;11.40;;
13230;SDS011;6681;53.254;10.398;2023-07-29T06:55:42;8.63;;;6.63;;
13230;SDS011;6681;53.254;10.398;2023-07-29T06:58:08;7.47;;;6.73;;
13230;SDS011;6681;53.254;10.398;2023-07-29T07:00:34;7.80;;;5.97;;
13230;SDS011;6681;53.254;10.398;2023-07-29T07:03:00;12.33;;;8.03;;
13230;SDS011;6681;53.254;10.398;2023-07-29T07:05:26;7.37;;;6.40;;
13230;SDS011;6681;53.254;10.398;2023-07-29T07:07:51;8.77;;;5.53;;
13230;SDS011;6681;53.254;10.398;2023-07-29T07:10:17;8.87;;;6.17;;
13230;SDS011;6681;53.254;10.398;2023-07-29T07:12:43;6.00;;;5.50;;
13230;SDS011;6681;53.254;10.398;2023-07-29T07:15:09;4.87;;;4.37;;
13230;SDS011;6681;53.254;10.398;2023-07-29T07:17:35;5.90;;;5.20;;
13230;SDS011;6681;53.254;10.398;2023-07-29T07:20:00;3.90;;;3.60;;
13230;SDS011;6681;53.254;10.398;2023-07-29T07:22:26;3.53;;;3.23;;
13230;SDS011;6681;53.254;10.398;2023-07-29T07:24:52;3.93;;;3.00;;
13230;SDS011;6681;53.254;10.398;2023-07-29T07:27:17;5.33;;;3.30;;
13230;SDS011;6681;53.254;10.398;2023-07-29T07:29:43;3.87;;;3.13;;
13230;SDS011;6681;53.254;10.398;2023-07-29T07:32:09;3.07;;;2.80;;
13230;SDS011;6681;53.254;10.398;2023-07-29T07:34:34;3.83;;;3.13;;
13230;SDS011;6681;53.254;10.398;2023-07-29T07:37:00;2.97;;;2.70;;
13230;SDS011;6681;53.254;10.398;2023-07-29T07:39:26;4.43;;;3.37;;
13230;SDS011;6681;53.254;10.398;2023-07-29T07:41:51;6.23;;;2.70;;
13230;SDS011;6681;53.254;10.398;2023-07-29T07:44:18;3.23;;;2.50;;
13230;SDS011;6681;53.254;10.398;2023-07-29T07:46:44;4.23;;;2.93;;
13230;SDS011;6681;53.254;10.398;2023-07-29T07:49:10;4.10;;;3.60;;
13230;SDS011;6681;53.254;10.398;2023-07-29T07:51:37;5.17;;;2.53;;
13230;SDS011;6681;53.254;10.398;2023-07-29T07:54:03;3.17;;;2.23;;
13230;SDS011;6681;53.254;10.398;2023-07-29T07:56:29;4.03;;;2.50;;
13230;SDS011;6681;53.254;10.398;2023-07-29T07:58:54;3.03;;;2.83;;
13230;SDS011;6681;53.254;10.398;2023-07-29T08:01:20;3.30;;;3.00;;
13230;SDS011;6681;53.254;10.398;2023-07-29T08:03:45;2.73;;;2.17;;
13230;SDS011;6681;53.254;10.398;2023-07-29T08:06:11;3.70;;;3.37;;
13230;SDS011;6681;53.254;10.398;2023-07-29T08:08:37;5.07;;;2.77;;
13230;SDS011;6681;53.254;10.398;2023-07-29T08:11:02;3.60;;;3.30;;
13230;SDS011;6681;53.254;10.398;2023-07-29T08:13:28;3.67;;;3.43;;
13230;SDS011;6681;53.254;10.398;2023-07-29T08:15:53;5.83;;;3.20;;
13230;SDS011;6681;53.254;10.398;2023-07-29T08:18:19;2.77;;;2.60;;
13230;SDS011;6681;53.254;10.398;2023-07-29T08:20:55;4.43;;;3.50;;
13230;SDS011;6681;53.254;10.398;2023-07-29T08:23:23;2.70;;;2.50;;
13230;SDS011;6681;53.254;10.398;2023-07-29T08:25:56;3.77;;;3.43;;
13230;SDS011;6681;53.254;10.398;2023-07-29T08:28:26;3.33;;;3.03;;
13230;SDS011;6681;53.254;10.398;2023-07-29T08:30:59;4.10;;;3.80;;
13230;SDS011;6681;53.254;10.398;2023-07-29T08:33:25;3.80;;;3.50;;
13230;SDS011;6681;53.254;10.398;2023-07-29T08:35:51;3.67;;;3.37;;
13230;SDS011;6681;53.254;10.398;2023-07-29T08:38:18;4.70;;;4.30;;
13230;SDS011;6681;53.254;10.398;2023-07-29T08:40:52;8.37;;;3.80;;
13230;SDS011;6681;53.254;10.398;2023-07-29T08:43:31;4.33;;;4.07;;
13230;SDS011;6681;53.254;10.398;2023-07-29T08:45:58;4.60;;;4.20;;
13230;SDS011;6681;53.254;10.398;2023-07-29T08:48:32;5.27;;;4.03;;
13230;SDS011;6681;53.254;10.398;2023-07-29T08:51:04;5.23;;;4.83;;
13230;SDS011;6681;53.254;10.398;2023-07-29T08:53:32;5.03;;;4.63;;
13230;SDS011;6681;53.254;10.398;2023-07-29T08:55:58;7.67;;;6.93;;
13230;SDS011;6681;53.254;10.398;2023-07-29T08:58:24;5.70;;;5.30;;
13230;SDS011;6681;53.254;10.398;2023-07-29T09:00:51;7.47;;;6.77;;
13230;SDS011;6681;53.254;10.398;2023-07-29T09:03:17;6.33;;;5.73;;
13230;SDS011;6681;53.254;10.398;2023-07-29T09:05:42;9.50;;;7.43;;
13230;SDS011;6681;53.254;10.398;2023-07-29T09:08:08;13.53;;;7.10;;
13230;SDS011;6681;53.254;10.398;2023-07-29T09:10:35;7.57;;;6.70;;
13230;SDS011;6681;53.254;10.398;2023-07-29T09:13:02;8.07;;;7.23;;
13230;SDS011;6681;53.254;10.398;2023-07-29T09:15:29;7.70;;;7.00;;
13230;SDS011;6681;53.254;10.398;2023-07-29T09:17:56;7.20;;;6.60;;
13230;SDS011;6681;53.254;10.398;2023-07-29T09:20:28;8.80;;;7.87;;
13230;SDS011;6681;53.254;10.398;2023-07-29T09:22:54;13.50;;;7.70;;
13230;SDS011;6681;53.254;10.398;2023-07-29T09:25:25;11.00;;;9.87;;
13230;SDS011;6681;53.254;10.398;2023-07-29T09:27:52;9.87;;;7.40;;
13230;SDS011;6681;53.254;10.398;2023-07-29T09:30:18;8.50;;;6.40;;
13230;SDS011;6681;53.254;10.398;2023-07-29T09:32:43;10.80;;;8.73;;
13230;SDS011;6681;53.254;10.398;2023-07-29T09:35:10;5.27;;;4.53;;
13230;SDS011;6681;53.254;10.398;2023-07-29T09:37:37;7.27;;;4.00;;
13230;SDS011;6681;53.254;10.398;2023-07-29T09:40:03;5.30;;;4.87;;
13230;SDS011;6681;53.254;10.398;2023-07-29T09:42:30;5.50;;;3.43;;
13230;SDS011;6681;53.254;10.398;2023-07-29T09:44:56;3.20;;;2.77;;
13230;SDS011;6681;53.254;10.398;2023-07-29T09:47:22;2.20;;;2.10;;
13230;SDS011;6681;53.254;10.398;2023-07-29T09:49:49;2.50;;;2.30;;
13230;SDS011;6681;53.254;10.398;2023-07-29T09:52:19;2.73;;;2.53;;
13230;SDS011;6681;53.254;10.398;2023-07-29T09:54:46;8.93;;;3.17;;
13230;SDS011;6681;53.254;10.398;2023-07-29T09:57:16;13.90;;;4.37;;
13230;SDS011;6681;53.254;10.398;2023-07-29T09:59:43;7.43;;;5.00;;
13230;SDS011;6681;53.254;10.398;2023-07-29T10:02:18;4.37;;;3.97;;
13230;SDS011;6681;53.254;10.398;2023-07-29T10:04:45;7.10;;;6.40;;
13230;SDS011;6681;53.254;10.398;2023-07-29T10:07:12;6.97;;;6.33;;
13230;SDS011;6681;53.254;10.398;2023-07-29T10:09:39;6.93;;;6.30;;
13230;SDS011;6681;53.254;10.398;2023-07-29T10:12:05;9.63;;;8.73;;
13230;SDS011;6681;53.254;10.398;2023-07-29T10:14:32;8.50;;;7.60;;
13230;SDS011;6681;53.254;10.398;2023-07-29T10:16:59;10.13;;;9.13;;
13230;SDS011;6681;53.254;10.398;2023-07-29T10:19:25;12.10;;;10.93;;
13230;SDS011;6681;53.254;10.398;2023-07-29T10:21:51;12.30;;;11.10;;
13230;SDS011;6681;53.254;10.398;2023-07-29T10:24:22;12.67;;;10.57;;
13230;SDS011;6681;53.254;10.398;2023-07-29T10:26:56;12.40;;;10.30;;
13230;SDS011;6681;53.254;10.398;2023-07-29T10:29:23;11.23;;;10.13;;
13230;SDS011;6681;53.254;10.398;2023-07-29T10:31:52;14.17;;;11.53;;
13230;SDS011;6681;53.254;10.398;2023-07-29T10:34:21;13.23;;;11.30;;
13230;SDS011;6681;53.254;10.398;2023-07-29T10:36:48;12.83;;;11.53;;
13230;SDS011;6681;53.254;10.398;2023-07-29T10:39:14;12.67;;;11.17;;
13230;SDS011;6681;53.254;10.398;2023-07-29T10:41:58;15.00;;;13.50;;
13230;SDS011;6681;53.254;10.398;2023-07-29T10:47:13;12.47;;;10.93;;
13230;SDS011;6681;53.254;10.398;2023-07-29T10:49:56;12.57;;;10.63;;
13230;SDS011;6681;53.254;10.398;2023-07-29T10:55:01;12.80;;;11.50;;
13230;SDS011;6681;53.254;10.398;2023-07-29T10:57:35;11.57;;;10.43;;
13230;SDS011;6681;53.254;10.398;2023-07-29T11:00:04;13.17;;;11.77;;
13230;SDS011;6681;53.254;10.398;2023-07-29T11:02:36;13.73;;;11.77;;
13230;SDS011;6681;53.254;10.398;2023-07-29T11:05:07;12.03;;;10.90;;
13230;SDS011;6681;53.254;10.398;2023-07-29T11:07:43;16.47;;;12.60;;
13230;SDS011;6681;53.254;10.398;2023-07-29T11:10:11;11.73;;;10.63;;
13230;SDS011;6681;53.254;10.398;2023-07-29T11:12:44;12.67;;;11.43;;
13230;SDS011;6681;53.254;10.398;2023-07-29T11:15:26;12.77;;;11.50;;
13230;SDS011;6681;53.254;10.398;2023-07-29T11:17:53;11.33;;;10.30;;
13230;SDS011;6681;53.254;10.398;2023-07-29T11:20:27;10.03;;;9.03;;
13230;SDS011;6681;53.254;10.398;2023-07-29T11:22:54;10.53;;;9.53;;
13230;SDS011;6681;53.254;10.398;2023-07-29T11:25:22;11.27;;;10.27;;
13230;SDS011;6681;53.254;10.398;2023-07-29T11:27:51;13.27;;;11.20;;
13230;SDS011;6681;53.254;10.398;2023-07-29T11:30:18;11.37;;;10.33;;
13230;SDS011;6681;53.254;10.398;2023-07-29T11:32:45;9.03;;;8.13;;
13230;SDS011;6681;53.254;10.398;2023-07-29T11:35:12;16.73;;;9.87;;
13230;SDS011;6681;53.254;10.398;2023-07-29T11:37:40;11.30;;;10.17;;
13230;SDS011;6681;53.254;10.398;2023-07-29T11:40:07;11.10;;;10.03;;
13230;SDS011;6681;53.254;10.398;2023-07-29T11:42:35;10.80;;;9.90;;
13230;SDS011;6681;53.254;10.398;2023-07-29T11:45:02;9.83;;;9.03;;
13230;SDS011;6681;53.254;10.398;2023-07-29T11:47:31;10.93;;;9.63;;
13230;SDS011;6681;53.254;10.398;2023-07-29T11:50:01;10.47;;;9.37;;
13230;SDS011;6681;53.254;10.398;2023-07-29T11:52:30;10.87;;;9.77;;
13230;SDS011;6681;53.254;10.398;2023-07-29T11:54:57;9.43;;;8.53;;
13230;SDS011;6681;53.254;10.398;2023-07-29T11:57:25;9.13;;;8.20;;
13230;SDS011;6681;53.254;10.398;2023-07-29T11:59:50;8.90;;;8.13;;
13230;SDS011;6681;53.254;10.398;2023-07-29T12:02:17;9.03;;;8.00;;
13230;SDS011;6681;53.254;10.398;2023-07-29T12:04:45;8.70;;;7.90;;
13230;SDS011;6681;53.254;10.398;2023-07-29T12:07:12;8.93;;;8.00;;
13230;SDS011;6681;53.254;10.398;2023-07-29T12:09:40;6.97;;;6.37;;
13230;SDS011;6681;53.254;10.398;2023-07-29T12:12:07;7.00;;;6.40;;
13230;SDS011;6681;53.254;10.398;2023-07-29T12:14:33;6.43;;;5.83;;
13230;SDS011;6681;53.254;10.398;2023-07-29T12:17:00;6.87;;;6.07;;
13230;SDS011;6681;53.254;10.398;2023-07-29T12:19:36;8.30;;;6.80;;
13230;SDS011;6681;53.254;10.398;2023-07-29T12:22:03;5.07;;;4.67;;
13230;SDS011;6681;53.254;10.398;2023-07-29T12:24:31;5.80;;;5.20;;
13230;SDS011;6681;53.254;10.398;2023-07-29T12:26:59;6.47;;;5.97;;
13230;SDS011;6681;53.254;10.398;2023-07-29T12:29:25;5.20;;;4.80;;
13230;SDS011;6681;53.254;10.398;2023-07-29T12:32:10;4.83;;;4.40;;
13230;SDS011;6681;53.254;10.398;2023-07-29T12:34:36;4.33;;;4.03;;
13230;SDS011;6681;53.254;10.398;2023-07-29T12:37:04;7.20;;;4.20;;
13230;SDS011;6681;53.254;10.398;2023-07-29T12:39:31;3.03;;;2.80;;
13230;SDS011;6681;53.254;10.398;2023-07-29T12:41:59;4.77;;;4.37;;
13230;SDS011;6681;53.254;10.398;2023-07-29T12:44:29;3.37;;;3.07;;
13230;SDS011;6681;53.254;10.398;2023-07-29T12:46:56;3.37;;;3.17;;
13230;SDS011;6681;53.254;10.398;2023-07-29T12:49:22;6.13;;;2.77;;
13230;SDS011;6681;53.254;10.398;2023-07-29T12:51:47;3.23;;;3.03;;
13230;SDS011;6681;53.254;10.398;2023-07-29T12:54:13;3.43;;;3.13;;
13230;SDS011;6681;53.254;10.398;2023-07-29T12:56:39;4.13;;;2.70;;
13230;SDS011;6681;53.254;10.398;2023-07-29T12:59:05;2.70;;;2.50;;
13230;SDS011;6681;53.254;10.398;2023-07-29T13:01:30;3.40;;;2.77;;
13230;SDS011;6681;53.254;10.398;2023-07-29T13:03:56;4.13;;;3.77;;
13230;SDS011;6681;53.254;10.398;2023-07-29T13:06:22;4.23;;;2.73;;
13230;SDS011;6681;53.254;10.398;2023-07-29T13:08:48;5.40;;;2.70;;
13230;SDS011;6681;53.254;10.398;2023-07-29T13:11:14;3.03;;;2.47;;
13230;SDS011;6681;53.254;10.398;2023-07-29T13:13:41;2.33;;;2.20;;
13230;SDS011;6681;53.254;10.398;2023-07-29T13:16:07;2.13;;;1.93;;
13230;SDS011;6681;53.254;10.398;2023-07-29T13:18:32;3.03;;;2.83;;
13230;SDS011;6681;53.254;10.398;2023-07-29T13:20:59;2.33;;;2.23;;
13230;SDS011;6681;53.254;10.398;2023-07-29T13:23:25;2.27;;;2.17;;
13230;SDS011;6681;53.254;10.398;2023-07-29T13:25:51;3.30;;;2.93;;
13230;SDS011;6681;53.254;10.398;2023-07-29T13:28:17;1.93;;;1.83;;
13230;SDS011;6681;53.254;10.398;2023-07-29T13:30:44;5.40;;;2.13;;
13230;SDS011;6681;53.254;10.398;2023-07-29T13:33:09;2.50;;;2.10;;
13230;SDS011;6681;53.254;10.398;2023-07-29T13:35:35;1.87;;;1.77;;
13230;SDS011;6681;53.254;10.398;2023-07-29T13:38:01;2.13;;;1.40;;
13230;SDS011;6681;53.254;10.398;2023-07-29T13:40:27;3.07;;;2.00;;
13230;SDS011;6681;53.254;10.398;2023-07-29T13:42:53;3.33;;;1.87;;
13230;SDS011;6681;53.254;10.398;2023-07-29T13:45:19;2.07;;;1.97;;
13230;SDS011;6681;53.254;10.398;2023-07-29T13:47:45;1.70;;;1.60;;
13230;SDS011;6681;53.254;10.398;2023-07-29T13:50:11;3.23;;;2.50;;
13230;SDS011;6681;53.254;10.398;2023-07-29T13:52:37;1.60;;;1.50;;
13230;SDS011;6681;53.254;10.398;2023-07-29T13:55:03;1.70;;;1.40;;
13230;SDS011;6681;53.254;10.398;2023-07-29T13:57:29;4.23;;;1.60;;
13230;SDS011;6681;53.254;10.398;2023-07-29T13:59:55;1.30;;;1.23;;
13230;SDS011;6681;53.254;10.398;2023-07-29T14:02:21;1.77;;;1.67;;
13230;SDS011;6681;53.254;10.398;2023-07-29T14:04:46;1.00;;;1.00;;
13230;SDS011;6681;53.254;10.398;2023-07-29T14:07:12;1.43;;;1.33;;
13230;SDS011;6681;53.254;10.398;2023-07-29T14:09:38;1.63;;;0.90;;
13230;SDS011;6681;53.254;10.398;2023-07-29T14:12:03;3.40;;;1.73;;
13230;SDS011;6681;53.254;10.398;2023-07-29T14:14:30;3.97;;;1.20;;
13230;SDS011;6681;53.254;10.398;2023-07-29T14:16:56;3.83;;;2.00;;
13230;SDS011;6681;53.254;10.398;2023-07-29T14:19:22;1.13;;;1.10;;
13230;SDS011;6681;53.254;10.398;2023-07-29T14:21:48;1.87;;;1.77;;
13230;SDS011;6681;53.254;10.398;2023-07-29T14:24:14;2.50;;;1.33;;
13230;SDS011;6681;53.254;10.398;2023-07-29T14:26:40;1.10;;;1.00;;
13230;SDS011;6681;53.254;10.398;2023-07-29T14:29:06;1.33;;;1.23;;
13230;SDS011;6681;53.254;10.398;2023-07-29T14:31:32;1.70;;;1.20;;
13230;SDS011;6681;53.254;10.398;2023-07-29T14:33:57;1.90;;;1.30;;
13230;SDS011;6681;53.254;10.398;2023-07-29T14:36:24;3.47;;;1.17;;
13230;SDS011;6681;53.254;10.398;2023-07-29T14:38:50;1.10;;;1.10;;
13230;SDS011;6681;53.254;10.398;2023-07-29T14:41:15;2.43;;;1.30;;
13230;SDS011;6681;53.254;10.398;2023-07-29T14:43:41;1.57;;;1.03;;
13230;SDS011;6681;53.254;10.398;2023-07-29T14:46:06;1.40;;;1.07;;
13230;SDS011;6681;53.254;10.398;2023-07-29T14:48:32;2.97;;;1.17;;